To NAV CANADA Home Page Login to a new session Search on AWWS site Feedback and Comments Disclaimer Vers la page française équivalente Tips FAQ What's new on the site To the Forecasts and Observations / NOTAM section To "File a Flight Plan" website Publications and other links Update of the User's profile FIC Telephone Numbers My Weather Data Folder Route Weather Data Regional Weather Data Local Weather Data To the Forecasts and Observations / NOTAM section
Request Generated 05/03/2015 at 17:54:00 UTC . Weather information available at that time is displayed.

METAR/TAF

NAIN/NL    

METAR CYDP 031700Z 08010KT 15SM FEW220 02/00 A2993 RMK CI1 TR AC
SLP137=
METAR CYDP 031600Z 08013KT 15SM FEW110 FEW220 02/M00 A2993 RMK AC1CI1
SLP136=
METAR CYDP 031500Z 09010KT 15SM SCT110 BKN220 02/M01 A2993 RMK AC3CI3
SLP136=

TAF AMD CYDP 031750Z 0317/0323 08010KT P6SM FEW025
BECMG 0321/0323 VRB03KT
RMK NXT FCST BY 032000Z=
Your time UTC time
Weather data provided by Environment Canada and NAV CANADA